Time;durP1;ratioP1;P1;durP2;ratioP2;P2;SDS_P1;SDS_P2;PMS_P1;PMS_P2;Temp;Humidity;BMP_temperature;BMP_pressure;BME280_temperature;BME280_humidity;BME280_pressure;Samples;Min_cycle;Max_cycle;Signal;HPM_P1;HPM_P2
2023/08/15 00:01:39;;;;;;;5.53;1.00;;;18.00;99.90;;;;;;5053531;28;20382;-48
2023/08/15 00:04:05;;;;;;;4.28;0.93;;;18.00;99.90;;;;;;5053368;28;20033;-44
2023/08/15 00:06:30;;;;;;;3.83;0.88;;;18.50;99.90;;;;;;5053502;28;20055;-47
2023/08/15 00:08:57;;;;;;;3.83;1.02;;;18.10;99.90;;;;;;5053441;28;20486;-45
2023/08/15 00:11:23;;;;;;;1.30;0.68;;;17.20;99.90;;;;;;5053235;28;20044;-45
2023/08/15 00:13:49;;;;;;;5.60;1.30;;;18.40;99.90;;;;;;5053348;28;20168;-44
2023/08/15 00:16:15;;;;;;;2.10;0.60;;;19.40;99.90;;;;;;5053365;28;20032;-45
2023/08/15 00:18:41;;;;;;;4.03;0.73;;;17.10;99.90;;;;;;5053203;28;20033;-45
2023/08/15 00:21:07;;;;;;;5.30;0.80;;;18.60;99.90;;;;;;5052990;28;20063;-45
2023/08/15 00:23:32;;;;;;;4.20;1.02;;;18.60;99.90;;;;;;5053161;28;20378;-45
2023/08/15 00:25:58;;;;;;;3.15;0.70;;;18.10;99.90;;;;;;5053096;28;20120;-45
2023/08/15 00:28:24;;;;;;;1.88;0.73;;;;;;;;;;5052928;28;20028;-48
2023/08/15 00:30:50;;;;;;;2.25;0.70;;;18.50;99.90;;;;;;5053076;28;20036;-48
2023/08/15 00:33:15;;;;;;;2.83;0.90;;;19.40;99.90;;;;;;5052841;28;20025;-48
2023/08/15 00:35:44;;;;;;;3.78;0.80;;;18.40;99.90;;;;;;5052813;28;20025;-48
2023/08/15 00:38:09;;;;;;;2.33;0.83;;;17.90;99.90;;;;;;5052844;28;20056;-45
2023/08/15 00:40:39;;;;;;;1.27;0.65;;;17.40;99.90;;;;;;5052864;28;20624;-50
2023/08/15 00:43:04;;;;;;;;;;;17.20;99.90;;;;;;5053362;28;20053;-47
2023/08/15 00:45:31;;;;;;;2.25;0.80;;;17.10;99.90;;;;;;5052428;28;20331;-49
2023/08/15 00:47:58;;;;;;;2.78;1.15;;;;;;;;;;5052386;28;20049;-48
2023/08/15 00:50:24;;;;;;;2.20;0.77;;;17.00;99.90;;;;;;5051825;28;20017;-48
2023/08/15 00:52:50;;;;;;;3.40;0.80;;;18.30;99.90;;;;;;5051946;28;20040;-57
2023/08/15 00:55:17;;;;;;;2.35;0.90;;;14.20;99.90;;;;;;5052459;28;20039;-49
2023/08/15 00:57:43;;;;;;;3.78;1.17;;;18.80;99.90;;;;;;5052317;28;20125;-47
2023/08/15 01:00:11;;;;;;;4.40;0.80;;;18.00;99.90;;;;;;5052325;28;20120;-52
2023/08/15 01:02:37;;;;;;;2.30;0.90;;;18.10;99.90;;;;;;5052306;28;20043;-49
2023/08/15 01:05:04;;;;;;;2.33;0.95;;;14.00;99.90;;;;;;5052402;28;20021;-47
2023/08/15 01:07:30;;;;;;;2.15;0.77;;;16.10;99.90;;;;;;5051903;28;20067;-48
2023/08/15 01:09:56;;;;;;;3.67;1.08;;;17.70;99.90;;;;;;5052509;28;20020;-46
2023/08/15 01:12:26;;;;;;;6.25;2.00;;;17.60;99.90;;;;;;5052117;28;20394;-47
2023/08/15 01:14:54;;;;;;;2.72;1.00;;;16.60;99.90;;;;;;5052046;28;20421;-53
2023/08/15 01:17:31;;;;;;;3.20;0.68;;;17.20;99.90;;;;;;5052025;28;20110;-49
2023/08/15 01:19:59;;;;;;;1.05;0.77;;;16.50;99.90;;;;;;5052028;28;20074;-51
2023/08/15 01:22:28;;;;;;;6.68;1.38;;;17.80;99.90;;;;;;5051966;28;20495;-50
2023/08/15 01:24:54;;;;;;;5.13;0.93;;;13.60;99.90;;;;;;5050499;28;20215;-45
2023/08/15 01:27:20;;;;;;;5.82;0.80;;;17.50;99.90;;;;;;5051707;28;20082;-46
2023/08/15 01:29:46;;;;;;;2.53;0.70;;;;;;;;;;5051831;28;20108;-45
2023/08/15 01:32:24;;;;;;;2.28;0.70;;;17.40;99.90;;;;;;5051736;28;20104;-53
2023/08/15 01:35:07;;;;;;;1.85;0.85;;;17.50;99.90;;;;;;5051684;28;20100;-47
2023/08/15 01:37:36;;;;;;;2.35;1.02;;;16.20;99.90;;;;;;5051904;28;20033;-53
2023/08/15 01:40:06;;;;;;;2.25;1.02;;;17.10;99.90;;;;;;5051340;28;20029;-50
2023/08/15 01:42:32;;;;;;;4.38;1.15;;;12.80;99.90;;;;;;5051645;28;20083;-52
2023/08/15 01:45:01;;;;;;;3.38;1.00;;;16.20;99.90;;;;;;5051549;28;20060;-50
2023/08/15 01:47:29;;;;;;;3.25;0.73;;;12.80;99.90;;;;;;5051404;28;20056;-48
2023/08/15 01:49:55;;;;;;;2.50;1.27;;;;;;;;;;5049647;28;20040;-45
2023/08/15 01:52:20;;;;;;;6.05;1.00;;;17.30;99.90;;;;;;5051575;28;20025;-46
2023/08/15 01:54:46;;;;;;;5.07;1.40;;;17.10;99.90;;;;;;5051498;28;20048;-48
2023/08/15 01:57:12;;;;;;;3.80;1.15;;;16.30;99.90;;;;;;5050751;28;20036;-47
2023/08/15 01:59:37;;;;;;;2.58;1.00;;;18.30;99.90;;;;;;5051277;28;20547;-49
2023/08/15 02:02:06;;;;;;;4.70;1.10;;;;;;;;;;5050639;28;20037;-45
2023/08/15 02:04:32;;;;;;;4.18;1.08;;;17.10;99.90;;;;;;5051149;28;20032;-48
2023/08/15 02:06:58;;;;;;;1.45;1.00;;;;;;;;;;5050908;28;20035;-50
2023/08/15 02:09:24;;;;;;;5.25;1.40;;;14.10;99.90;;;;;;5051098;28;20024;-46
2023/08/15 02:11:49;;;;;;;4.68;1.30;;;16.60;99.90;;;;;;5050914;28;20033;-45
2023/08/15 02:14:15;;;;;;;4.57;0.90;;;16.30;99.90;;;;;;5051056;28;20024;-52
2023/08/15 02:16:40;;;;;;;2.17;1.00;;;15.60;99.90;;;;;;5036666;28;20036;-50
2023/08/15 02:19:06;;;;;;;2.78;1.23;;;16.10;99.90;;;;;;5034462;28;20044;-52
2023/08/15 02:21:32;;;;;;;4.07;1.35;;;16.40;99.90;;;;;;5035843;28;20045;-51
2023/08/15 02:23:58;;;;;;;2.70;1.23;;;16.80;99.90;;;;;;5029555;28;20021;-52
2023/08/15 02:26:23;;;;;;;4.78;0.90;;;17.50;99.90;;;;;;5037147;28;20026;-54
2023/08/15 02:28:49;;;;;;;3.47;1.15;;;17.50;99.90;;;;;;5035299;28;20021;-46
2023/08/15 02:31:15;;;;;;;3.85;1.13;;;;;;;;;;5035626;28;20036;-55
2023/08/15 02:33:41;;;;;;;4.43;1.33;;;;;;;;;;5050711;28;20025;-46
2023/08/15 02:36:07;;;;;;;3.65;1.10;;;16.00;99.90;;;;;;5050493;28;20036;-50
2023/08/15 02:38:33;;;;;;;3.38;1.20;;;14.30;99.90;;;;;;5050488;28;20053;-48
2023/08/15 02:40:59;;;;;;;2.88;1.20;;;15.80;99.90;;;;;;5050323;28;20044;-48
2023/08/15 02:43:25;;;;;;;4.00;1.80;;;15.80;99.90;;;;;;5050475;28;20021;-51
2023/08/15 02:45:51;;;;;;;5.35;1.30;;;16.30;99.90;;;;;;5050687;28;20474;-47
2023/08/15 02:48:16;;;;;;;5.47;2.03;;;;;;;;;;5050705;28;20064;-45
2023/08/15 02:50:42;;;;;;;9.32;2.70;;;17.80;99.90;;;;;;5049161;28;20032;-52
2023/08/15 02:53:08;;;;;;;4.70;2.22;;;;;;;;;;5050197;28;20021;-49
2023/08/15 02:55:35;;;;;;;7.47;2.70;;;;;;;;;;5050322;28;20036;-50
2023/08/15 02:58:00;;;;;;;6.25;2.70;;;16.50;99.90;;;;;;5050331;28;20028;-50
2023/08/15 03:00:26;;;;;;;4.88;2.30;;;16.60;99.90;;;;;;5050109;28;20037;-52
2023/08/15 03:02:54;;;;;;;9.20;2.40;;;17.10;99.90;;;;;;5050267;28;20021;-48
2023/08/15 03:05:20;;;;;;;6.45;2.78;;;15.50;99.90;;;;;;5048952;28;20107;-50
2023/08/15 03:07:46;;;;;;;9.35;2.65;;;;;;;;;;5050475;28;20104;-50
2023/08/15 03:10:12;;;;;;;13.60;3.05;;;16.00;99.90;;;;;;5050205;28;20028;-51
2023/08/15 03:12:38;;;;;;;5.70;2.60;;;16.50;99.90;;;;;;5050574;28;20048;-47
2023/08/15 03:15:04;;;;;;;7.22;2.60;;;13.10;99.90;;;;;;5052128;28;20448;-49
2023/08/15 03:17:32;;;;;;;12.18;2.88;;;15.10;99.90;;;;;;5054355;28;20086;-48
2023/08/15 03:19:58;;;;;;;6.43;2.85;;;12.60;99.90;;;;;;5054513;28;20025;-47
2023/08/15 03:22:23;;;;;;;6.95;2.65;;;16.60;99.90;;;;;;5054156;28;20047;-50
2023/08/15 03:24:49;;;;;;;6.93;3.22;;;;;;;;;;5054353;28;20029;-46
2023/08/15 03:27:15;;;;;;;7.20;3.33;;;16.70;99.90;;;;;;5054113;28;20029;-54
2023/08/15 03:29:41;;;;;;;6.72;3.40;;;;;;;;;;5054279;28;20036;-46
2023/08/15 03:32:07;;;;;;;8.75;3.00;;;15.50;99.90;;;;;;5054096;28;20025;-52
2023/08/15 03:34:32;;;;;;;7.03;3.42;;;12.90;99.90;;;;;;5054003;28;20505;-48
2023/08/15 03:36:58;;;;;;;5.57;2.95;;;;;;;;;;5054383;28;20025;-55
2023/08/15 03:39:25;;;;;;;6.43;3.00;;;16.30;99.90;;;;;;5054020;28;20540;-47
2023/08/15 03:41:51;;;;;;;8.95;3.45;;;;;;;;;;5053896;28;20112;-48
2023/08/15 03:44:17;;;;;;;10.73;3.60;;;13.30;99.90;;;;;;5053929;28;20443;-50
2023/08/15 03:46:44;;;;;;;5.95;2.75;;;;;;;;;;5053690;28;20029;-49
2023/08/15 03:49:10;;;;;;;6.35;2.83;;;15.40;99.90;;;;;;5054012;28;20037;-51
2023/08/15 03:51:36;;;;;;;5.82;2.67;;;;;;;;;;5053744;28;20033;-45
2023/08/15 03:54:02;;;;;;;7.68;2.67;;;;;;;;;;5053757;28;20058;-53
2023/08/15 03:56:27;;;;;;;6.00;2.63;;;15.90;99.90;;;;;;5053512;28;20504;-46
2023/08/15 03:58:53;;;;;;;6.80;2.47;;;15.80;99.90;;;;;;5053808;28;20021;-50
2023/08/15 04:01:19;;;;;;;8.60;2.92;;;16.30;99.90;;;;;;5053689;28;20077;-54
2023/08/15 04:03:45;;;;;;;5.20;2.60;;;15.60;99.90;;;;;;5053568;28;20029;-47
2023/08/15 04:06:11;;;;;;;7.47;2.75;;;;;;;;;;5053502;28;20530;-45
2023/08/15 04:08:37;;;;;;;6.45;3.22;;;16.20;99.90;;;;;;5053232;28;20104;-46
2023/08/15 04:11:03;;;;;;;6.85;3.20;;;;;;;;;;5053465;28;20078;-45
2023/08/15 04:13:28;;;;;;;9.80;2.72;;;16.50;99.90;;;;;;5053105;28;20381;-46
2023/08/15 04:15:54;;;;;;;5.80;2.80;;;15.30;99.90;;;;;;5053317;28;20029;-45
2023/08/15 04:18:20;;;;;;;6.55;2.85;;;11.90;99.90;;;;;;5053317;28;20120;-53
2023/08/15 04:20:46;;;;;;;5.32;2.72;;;;;;;;;;5053011;28;20040;-49
2023/08/15 04:23:11;;;;;;;6.10;2.47;;;12.10;99.90;;;;;;5053127;28;20543;-49
2023/08/15 04:25:38;;;;;;;5.95;2.83;;;16.10;99.90;;;;;;5052853;28;20068;-48
2023/08/15 04:28:04;;;;;;;6.70;3.35;;;15.80;99.90;;;;;;5053316;28;20174;-49
2023/08/15 04:30:31;;;;;;;7.05;3.65;;;16.10;99.90;;;;;;5052631;28;20021;-45
2023/08/15 04:33:01;;;;;;;7.65;3.20;;;15.10;99.90;;;;;;5052896;28;20490;-49
2023/08/15 04:35:27;;;;;;;;;;;15.10;99.90;;;;;;5053201;28;20760;-51
2023/08/15 04:37:53;;;;;;;8.02;3.20;;;;;;;;;;5052862;28;19916;-45
2023/08/15 04:40:40;;;;;;;6.18;3.10;;;12.20;99.90;;;;;;5052658;28;20037;-47
2023/08/15 04:43:06;;;;;;;8.30;2.88;;;;;;;;;;5052722;28;20028;-49
2023/08/15 04:45:32;;;;;;;6.43;3.22;;;12.20;99.90;;;;;;5052804;28;20029;-47
2023/08/15 04:47:58;;;;;;;5.82;2.92;;;16.30;99.90;;;;;;5052385;28;20057;-49
2023/08/15 04:50:24;;;;;;;5.43;2.45;;;;;;;;;;5052921;28;20485;-50
2023/08/15 04:52:49;;;;;;;5.53;3.15;;;15.40;99.90;;;;;;5052733;28;20095;-48
2023/08/15 04:55:15;;;;;;;5.68;3.15;;;12.30;99.90;;;;;;5052553;28;20047;-47
2023/08/15 04:57:41;;;;;;;5.75;2.90;;;16.20;99.90;;;;;;5052667;28;20059;-45
2023/08/15 05:00:11;;;;;;;9.07;3.78;;;12.10;99.90;;;;;;5052419;28;20107;-48
2023/08/15 05:02:36;;;;;;;5.15;2.42;;;14.00;99.90;;;;;;5040738;28;20037;-50
2023/08/15 05:05:09;;;;;;;7.70;2.70;;;15.00;99.90;;;;;;5034091;28;20503;-44
2023/08/15 05:07:34;;;;;;;7.10;3.40;;;17.30;99.90;;;;;;5034301;28;20697;-45
2023/08/15 05:10:00;;;;;;;5.85;3.05;;;;;;;;;;5033919;28;20072;-44
2023/08/15 05:12:26;;;;;;;6.55;2.42;;;;;;;;;;5032448;28;20143;-55
2023/08/15 05:14:52;;;;;;;5.25;2.42;;;;;;;;;;5033933;28;20028;-45
2023/08/15 05:17:19;;;;;;;8.18;2.88;;;12.10;99.90;;;;;;5034253;28;20124;-50
2023/08/15 05:19:45;;;;;;;5.35;2.53;;;;;;;;;;5032186;28;20542;-46
2023/08/15 05:22:11;;;;;;;5.82;2.88;;;;;;;;;;5033756;28;20506;-47
2023/08/15 05:24:36;;;;;;;6.13;2.97;;;13.20;99.90;;;;;;5034096;28;20025;-47
2023/08/15 05:27:02;;;;;;;9.02;3.17;;;15.10;99.90;;;;;;5033719;28;20563;-47
2023/08/15 05:29:27;;;;;;;7.97;2.50;;;15.90;99.90;;;;;;5031846;28;20017;-48
2023/08/15 05:31:53;;;;;;;7.85;3.03;;;;;;;;;;5033637;28;20083;-51
2023/08/15 05:34:19;;;;;;;7.68;2.67;;;;;;;;;;5046449;28;20021;-45
2023/08/15 05:36:45;;;;;;;6.10;2.90;;;16.10;99.90;;;;;;5051315;28;20028;-46
2023/08/15 05:39:11;;;;;;;6.95;2.63;;;;;;;;;;5051266;28;20029;-45
2023/08/15 05:41:37;;;;;;;5.38;3.00;;;17.00;99.90;;;;;;5051409;28;20033;-49
2023/08/15 05:44:02;;;;;;;6.05;3.05;;;14.70;99.90;;;;;;5051607;28;20033;-46
2023/08/15 05:46:28;;;;;;;7.15;2.63;;;12.10;99.90;;;;;;5051527;28;20067;-52
2023/08/15 05:48:54;;;;;;;4.40;2.20;;;16.20;99.90;;;;;;5051577;28;20037;-52
2023/08/15 05:51:19;;;;;;;7.40;2.85;;;13.60;99.90;;;;;;5051494;28;20025;-48
2023/08/15 05:53:45;;;;;;;5.93;2.75;;;14.20;99.90;;;;;;5051570;28;20017;-49
2023/08/15 05:56:11;;;;;;;4.10;2.17;;;;;;;;;;5051470;28;20461;-45
2023/08/15 05:58:36;;;;;;;6.10;2.88;;;15.20;99.90;;;;;;5051284;28;20025;-47
2023/08/15 06:01:02;;;;;;;7.93;2.63;;;16.40;99.90;;;;;;5051243;28;20115;-50
2023/08/15 06:03:28;;;;;;;6.85;2.60;;;13.20;99.90;;;;;;5051278;28;20109;-51
2023/08/15 06:05:55;;;;;;;5.05;2.53;;;16.80;99.90;;;;;;5051290;28;20162;-52
2023/08/15 06:08:21;;;;;;;9.45;3.45;;;15.30;99.90;;;;;;5051106;28;20032;-53
2023/08/15 06:10:47;;;;;;;5.32;2.30;;;12.40;99.90;;;;;;5051122;28;20025;-45
2023/08/15 06:13:12;;;;;;;4.95;2.40;;;12.70;99.90;;;;;;5050948;28;20020;-45
2023/08/15 06:15:38;;;;;;;6.75;2.72;;;12.70;99.90;;;;;;5051019;28;20505;-49
2023/08/15 06:18:04;;;;;;;6.00;2.75;;;16.90;99.90;;;;;;5051182;28;20025;-45
2023/08/15 06:20:29;;;;;;;6.68;3.10;;;16.40;99.90;;;;;;5050872;28;20472;-45
2023/08/15 06:22:55;;;;;;;5.28;2.78;;;16.40;99.90;;;;;;5051079;28;20036;-49
2023/08/15 06:25:21;;;;;;;6.53;2.45;;;16.60;99.90;;;;;;5050511;28;20036;-49
2023/08/15 06:27:47;;;;;;;5.65;2.47;;;;;;;;;;5050900;28;20043;-48
2023/08/15 06:30:13;;;;;;;6.03;3.08;;;16.80;99.90;;;;;;5050621;28;20025;-48
2023/08/15 06:32:39;;;;;;;5.85;3.03;;;;;;;;;;5032738;28;20072;-51
2023/08/15 06:35:06;;;;;;;6.78;3.38;;;;;;;;;;5050603;28;20461;-48
2023/08/15 06:37:32;;;;;;;4.97;2.40;;;12.40;99.90;;;;;;5043550;28;20481;-46
2023/08/15 06:39:58;;;;;;;5.78;2.33;;;;;;;;;;5045469;28;20024;-53
2023/08/15 06:42:23;;;;;;;5.82;2.50;;;12.90;99.90;;;;;;5038085;28;20108;-44
2023/08/15 06:44:49;;;;;;;6.28;2.72;;;16.90;99.90;;;;;;5037928;28;20509;-46
2023/08/15 06:47:15;;;;;;;6.05;3.15;;;;;;;;;;5038117;28;20057;-53
2023/08/15 06:49:41;;;;;;;5.30;2.63;;;18.40;99.90;;;;;;5038071;28;20074;-48
2023/08/15 06:52:09;;;;;;;7.82;2.50;;;15.60;99.90;;;;;;5042600;28;20028;-52
2023/08/15 06:54:36;;;;;;;5.80;2.95;;;17.30;99.90;;;;;;5050380;28;20021;-45
2023/08/15 06:57:02;;;;;;;4.65;2.20;;;14.60;99.90;;;;;;5042078;28;20030;-47
2023/08/15 06:59:28;;;;;;;4.53;1.90;;;18.00;99.90;;;;;;5050273;28;20040;-48
2023/08/15 07:01:54;;;;;;;3.83;1.50;;;18.80;99.90;;;;;;5037202;28;20030;-48
2023/08/15 07:04:20;;;;;;;3.10;1.63;;;19.30;99.90;;;;;;5030670;28;20078;-47
2023/08/15 07:06:46;;;;;;;3.60;1.85;;;;;;;;;;5054068;28;20115;-45
2023/08/15 07:09:12;;;;;;;3.75;2.00;;;19.60;99.90;;;;;;5042322;28;20030;-51
2023/08/15 07:11:38;;;;;;;2.38;1.50;;;;;;;;;;5030619;28;20128;-47
2023/08/15 07:14:03;;;;;;;3.10;1.58;;;20.10;99.90;;;;;;5030475;28;20050;-50
2023/08/15 07:16:29;;;;;;;2.42;1.33;;;21.00;99.90;;;;;;5036042;28;20029;-48
2023/08/15 07:18:55;;;;;;;2.63;1.30;;;21.60;99.90;;;;;;5032250;28;20382;-49
2023/08/15 07:21:20;;;;;;;6.45;1.70;;;22.20;99.90;;;;;;5030935;28;20075;-49
2023/08/15 07:23:46;;;;;;;2.65;1.20;;;22.60;99.90;;;;;;5030865;28;20030;-51
2023/08/15 07:26:13;;;;;;;2.85;1.30;;;23.30;99.90;;;;;;5030261;28;20025;-47
2023/08/15 07:28:39;;;;;;;3.10;1.02;;;23.80;99.90;;;;;;5030770;28;20021;-57
2023/08/15 07:31:05;;;;;;;2.72;1.27;;;24.10;99.90;;;;;;5036977;28;20029;-46
2023/08/15 07:33:31;;;;;;;2.28;1.08;;;24.50;99.90;;;;;;5038365;28;20040;-46
2023/08/15 07:35:57;;;;;;;3.97;1.10;;;24.60;99.90;;;;;;5050208;28;20390;-46
2023/08/15 07:38:22;;;;;;;2.28;1.00;;;24.80;99.90;;;;;;5044774;28;20112;-54
2023/08/15 07:40:49;;;;;;;1.45;0.88;;;25.20;99.90;;;;;;5041049;28;20040;-46
2023/08/15 07:43:15;;;;;;;3.28;0.80;;;25.30;99.90;;;;;;5034801;28;20017;-47
2023/08/15 07:45:40;;;;;;;2.58;0.80;;;25.30;99.90;;;;;;5038665;28;20025;-44
2023/08/15 07:48:06;;;;;;;1.15;0.65;;;25.60;99.90;;;;;;5037566;28;20722;-48
2023/08/15 07:50:32;;;;;;;1.75;1.00;;;25.70;99.90;;;;;;5031732;28;20056;-55
2023/08/15 07:52:58;;;;;;;2.08;0.80;;;25.70;99.90;;;;;;5035752;28;20052;-48
2023/08/15 07:55:24;;;;;;;1.00;0.68;;;25.60;99.90;;;;;;5037708;28;20475;-48
2023/08/15 07:57:50;;;;;;;1.83;0.60;;;25.80;99.90;;;;;;5029921;28;20580;-51
2023/08/15 08:00:16;;;;;;;1.08;0.55;;;25.70;99.90;;;;;;5037820;28;20041;-44
2023/08/15 08:02:43;;;;;;;0.85;0.60;;;25.60;99.90;;;;;;5037589;28;20116;-53
2023/08/15 08:05:10;;;;;;;2.33;0.70;;;25.90;99.90;;;;;;5036989;28;20053;-55
2023/08/15 08:07:36;;;;;;;3.97;0.77;;;26.00;99.90;;;;;;5040924;28;20021;-48
2023/08/15 08:10:02;;;;;;;1.42;0.75;;;25.90;99.90;;;;;;5040346;28;20029;-53
2023/08/15 08:12:28;;;;;;;1.00;0.70;;;25.90;99.90;;;;;;5033378;28;20052;-45
2023/08/15 08:14:54;;;;;;;2.47;0.98;;;25.80;99.90;;;;;;5039700;28;20086;-46
2023/08/15 08:17:21;;;;;;;2.08;0.93;;;25.80;99.90;;;;;;5039855;28;20025;-55
2023/08/15 08:19:47;;;;;;;2.13;0.80;;;25.90;99.90;;;;;;5036641;28;20108;-52
2023/08/15 08:22:13;;;;;;;2.95;0.77;;;25.80;99.90;;;;;;5036197;28;20157;-48
2023/08/15 08:24:38;;;;;;;4.13;0.85;;;25.90;99.90;;;;;;5039502;28;20124;-49
2023/08/15 08:27:04;;;;;;;1.40;0.75;;;26.10;99.90;;;;;;5039489;28;20449;-51
2023/08/15 08:29:30;;;;;;;4.80;1.10;;;26.40;99.90;;;;;;5033006;28;20025;-45
2023/08/15 08:31:56;;;;;;;1.85;0.80;;;26.70;99.90;;;;;;5039554;28;20036;-50
2023/08/15 08:34:21;;;;;;;1.20;0.70;;;26.80;99.90;;;;;;5045954;28;20029;-44
2023/08/15 08:36:47;;;;;;;2.65;0.65;;;27.10;99.90;;;;;;5044367;28;20444;-44
2023/08/15 08:39:13;;;;;;;1.95;0.63;;;27.20;99.90;;;;;;5052644;28;20058;-49
2023/08/15 08:41:39;;;;;;;1.00;0.68;;;27.20;99.90;;;;;;5035202;28;20029;-44
2023/08/15 08:44:06;;;;;;;2.45;0.80;;;26.70;99.90;;;;;;5034981;28;20104;-44
2023/08/15 08:46:32;;;;;;;1.13;0.50;;;26.50;99.90;;;;;;5034621;28;20065;-49
2023/08/15 08:48:59;;;;;;;3.25;0.60;;;26.30;99.90;;;;;;5040659;28;20041;-56
2023/08/15 08:51:25;;;;;;;1.05;0.63;;;26.30;99.90;;;;;;5037223;28;20089;-51
2023/08/15 08:53:51;;;;;;;1.25;0.52;;;26.50;99.90;;;;;;5032760;28;20017;-56
2023/08/15 08:56:18;;;;;;;1.10;0.60;;;26.70;99.90;;;;;;5045157;28;20116;-51
2023/08/15 08:58:48;;;;;;;1.13;0.65;;;27.00;99.90;;;;;;5037616;28;20025;-52
2023/08/15 09:01:15;;;;;;;0.85;0.45;;;27.20;99.90;;;;;;5034727;28;20112;-48
2023/08/15 09:03:41;;;;;;;1.00;0.60;;;27.40;99.90;;;;;;5033923;28;20508;-52
2023/08/15 09:06:07;;;;;;;4.97;0.77;;;27.60;99.90;;;;;;5037346;28;20079;-53
2023/08/15 09:08:33;;;;;;;1.05;0.60;;;28.00;99.90;;;;;;5037258;28;20024;-51
2023/08/15 09:10:59;;;;;;;1.05;0.50;;;27.90;99.90;;;;;;5032526;28;20021;-56
2023/08/15 09:13:24;;;;;;;2.03;0.80;;;27.20;99.90;;;;;;5036011;28;20093;-52
2023/08/15 09:15:51;;;;;;;1.63;0.60;;;26.60;99.90;;;;;;5037305;28;20025;-49
2023/08/15 09:18:24;;;;;;;3.13;0.80;;;25.50;99.90;;;;;;5033958;28;20021;-48
2023/08/15 09:20:49;;;;;;;1.77;0.60;;;24.90;99.90;;;;;;5030545;28;20107;-54
2023/08/15 09:23:16;;;;;;;1.10;0.55;;;24.20;99.90;;;;;;5036105;28;20076;-52
2023/08/15 09:25:42;;;;;;;1.25;0.50;;;24.30;99.90;;;;;;5035966;28;20022;-48
2023/08/15 09:28:08;;;;;;;0.40;0.40;;;24.40;99.90;;;;;;5031117;28;20037;-51
2023/08/15 09:30:33;;;;;;;1.05;0.50;;;24.30;99.90;;;;;;5034953;28;20382;-48
2023/08/15 09:33:02;;;;;;;0.63;0.35;;;24.20;99.90;;;;;;5048954;28;20067;-51
2023/08/15 09:35:31;;;;;;;1.27;0.60;;;24.80;99.90;;;;;;5051939;28;20037;-48
2023/08/15 09:37:56;;;;;;;3.65;0.50;;;25.40;99.90;;;;;;5051894;28;20025;-53
2023/08/15 09:40:24;;;;;;;1.88;0.50;;;25.90;99.90;;;;;;5051659;28;20136;-48
2023/08/15 09:42:50;;;;;;;1.90;0.50;;;26.40;99.90;;;;;;5051772;28;20075;-48
2023/08/15 09:45:16;;;;;;;1.55;0.50;;;26.70;99.90;;;;;;5051607;28;20410;-48
2023/08/15 09:47:44;;;;;;;1.63;0.60;;;26.40;99.90;;;;;;5051571;28;20520;-52
2023/08/15 09:50:12;;;;;;;1.58;0.82;;;25.70;99.90;;;;;;5051375;28;20030;-49
2023/08/15 09:52:40;;;;;;;1.95;0.60;;;25.90;99.90;;;;;;5051714;28;20413;-52
2023/08/15 09:55:11;;;;;;;1.42;0.55;;;25.90;99.90;;;;;;5050125;28;20036;-56
2023/08/15 09:57:42;;;;;;;2.00;0.75;;;25.50;99.90;;;;;;5051381;28;20108;-50
2023/08/15 10:00:12;;;;;;;0.93;0.43;;;25.50;99.90;;;;;;5051463;28;20386;-50
2023/08/15 10:02:53;;;;;;;1.08;0.50;;;26.30;99.90;;;;;;5051271;28;20071;-51
2023/08/15 10:05:24;;;;;;;2.50;0.63;;;26.20;99.90;;;;;;5051350;28;20054;-51
2023/08/15 10:07:51;;;;;;;0.98;0.40;;;26.00;99.90;;;;;;5051323;28;20553;-52
2023/08/15 10:10:17;;;;;;;1.58;0.55;;;26.00;99.90;;;;;;5049879;28;20033;-52
2023/08/15 10:12:45;;;;;;;2.55;0.70;;;25.60;99.90;;;;;;5051171;28;20021;-49
2023/08/15 10:15:11;;;;;;;2.17;0.70;;;26.00;99.90;;;;;;5050965;28;20032;-51
2023/08/15 10:17:37;;;;;;;2.45;0.90;;;26.50;99.90;;;;;;5051187;28;20031;-51
2023/08/15 10:20:12;;;;;;;2.40;0.80;;;26.70;99.90;;;;;;5050941;28;20029;-48
2023/08/15 10:22:39;;;;;;;2.63;0.70;;;26.40;99.90;;;;;;5037574;28;20045;-49
2023/08/15 10:25:33;;;;;;;1.90;0.60;;;25.70;99.90;;;;;;5050816;28;20029;-53
2023/08/15 10:28:02;;;;;;;1.00;0.50;;;25.30;99.90;;;;;;5039306;28;20401;-51
2023/08/15 10:30:35;;;;;;;;;;;25.60;99.90;;;;;;5051199;28;20112;-48
2023/08/15 10:33:11;;;;;;;2.35;0.50;;;25.70;99.90;;;;;;5050687;28;20291;-48
2023/08/15 10:35:37;;;;;;;1.00;0.57;;;25.50;99.90;;;;;;5050814;28;20067;-51
2023/08/15 10:38:14;;;;;;;0.95;0.52;;;25.90;99.90;;;;;;5050569;28;20024;-52
2023/08/15 10:40:42;;;;;;;0.85;0.38;;;26.50;99.90;;;;;;5050779;28;20058;-52
2023/08/15 10:43:13;;;;;;;2.60;0.50;;;27.30;99.90;;;;;;5049362;28;20028;-55
2023/08/15 10:46:06;;;;;;;2.22;1.05;;;27.80;99.90;;;;;;5050874;28;20032;-53
2023/08/15 10:48:51;;;;;;;0.68;0.40;;;27.90;99.90;;;;;;5035051;28;20049;-51
2023/08/15 10:51:25;;;;;;;0.90;0.40;;;28.10;98.80;;;;;;5049909;28;20058;-54
2023/08/15 10:53:59;;;;;;;2.53;0.60;;;28.00;98.40;;;;;;5049933;28;20092;-54
2023/08/15 10:56:30;;;;;;;0.75;0.57;;;28.20;99.90;;;;;;5049442;28;20028;-54
2023/08/15 10:58:57;;;;;;;0.88;0.50;;;28.40;98.30;;;;;;5049699;28;20074;-53
2023/08/15 11:01:25;;;;;;;1.13;0.40;;;28.60;98.50;;;;;;5049616;28;20037;-54
2023/08/15 11:03:53;;;;;;;1.30;0.50;;;28.60;98.50;;;;;;5049549;28;20017;-53
2023/08/15 11:06:18;;;;;;;0.35;0.30;;;28.80;98.70;;;;;;5049693;28;20033;-52
2023/08/15 11:08:49;;;;;;;2.40;0.57;;;29.00;98.60;;;;;;5048248;28;20029;-48
2023/08/15 11:11:16;;;;;;;1.50;0.65;;;28.80;97.00;;;;;;5049468;28;20029;-50
2023/08/15 11:13:47;;;;;;;0.98;0.40;;;28.50;97.30;;;;;;5047428;28;20481;-50
2023/08/15 11:16:17;;;;;;;0.75;0.50;;;28.60;99.20;;;;;;5049067;28;20025;-53
2023/08/15 11:18:43;;;;;;;1.40;0.57;;;28.50;97.40;;;;;;5043966;28;20036;-45
2023/08/15 11:21:11;;;;;;;0.80;0.60;;;27.60;97.80;;;;;;5034295;28;20079;-45
2023/08/15 11:23:38;;;;;;;1.23;0.60;;;27.30;98.80;;;;;;5031232;28;20500;-46
2023/08/15 11:26:09;;;;;;;0.65;0.52;;;27.50;98.30;;;;;;5038362;28;20025;-51
2023/08/15 11:28:35;;;;;;;0.77;0.43;;;27.60;97.00;;;;;;5036164;28;20021;-51
2023/08/15 11:31:10;;;;;;;1.25;0.70;;;27.70;98.70;;;;;;5031151;28;20028;-53
2023/08/15 11:33:36;;;;;;;0.65;0.40;;;27.90;99.00;;;;;;5049361;28;20029;-50
2023/08/15 11:36:06;;;;;;;0.85;0.55;;;28.10;98.00;;;;;;5050464;28;20075;-49
2023/08/15 11:38:33;;;;;;;0.70;0.50;;;27.90;95.80;;;;;;5052612;28;20026;-48
2023/08/15 11:40:59;;;;;;;1.05;0.60;;;27.40;97.20;;;;;;5052276;28;20056;-49
2023/08/15 11:43:25;;;;;;;0.60;0.50;;;26.70;96.90;;;;;;5052610;28;20031;-49
2023/08/15 11:45:51;;;;;;;0.90;0.68;;;26.20;99.20;;;;;;5052708;28;20242;-49
2023/08/15 11:48:17;;;;;;;1.80;0.73;;;26.50;99.40;;;;;;5003884;28;1414353;-48
2023/08/15 11:50:43;;;;;;;1.35;0.60;;;26.90;99.90;;;;;;5053707;28;20029;-51
2023/08/15 11:53:16;;;;;;;1.60;0.50;;;26.60;99.60;;;;;;5053628;28;20052;-52
2023/08/15 11:55:44;;;;;;;2.42;0.85;;;26.00;99.80;;;;;;5053950;28;20438;-52
2023/08/15 11:58:32;;;;;;;1.00;0.60;;;25.80;99.90;;;;;;5053783;28;20025;-51
2023/08/15 12:01:09;;;;;;;3.22;0.63;;;25.70;99.90;;;;;;5053545;28;20029;-53
2023/08/15 12:03:36;;;;;;;2.35;0.95;;;25.50;99.70;;;;;;5053871;28;20035;-52
2023/08/15 12:06:05;;;;;;;1.20;0.60;;;25.10;99.90;;;;;;5053504;28;20048;-47
2023/08/15 12:08:31;;;;;;;1.27;0.52;;;24.80;99.90;;;;;;5053368;28;20102;-50
2023/08/15 12:11:01;;;;;;;3.38;0.88;;;24.50;99.90;;;;;;5040319;28;20021;-55
2023/08/15 12:13:32;;;;;;;1.92;0.90;;;24.60;99.90;;;;;;5038218;28;20029;-49
2023/08/15 12:15:59;;;;;;;1.80;0.85;;;25.20;99.90;;;;;;5033191;28;20029;-50
2023/08/15 12:18:25;;;;;;;3.40;1.27;;;25.70;99.90;;;;;;5042095;28;20474;-51
2023/08/15 12:20:50;;;;;;;0.63;0.50;;;25.90;99.90;;;;;;5033997;28;20120;-55
2023/08/15 12:23:16;;;;;;;1.98;0.80;;;25.60;99.90;;;;;;5033450;28;20080;-52
2023/08/15 12:25:41;;;;;;;1.08;0.60;;;25.00;99.90;;;;;;5033226;28;20037;-50
2023/08/15 12:28:07;;;;;;;1.10;0.70;;;24.80;99.90;;;;;;5033218;28;20021;-49
2023/08/15 12:30:33;;;;;;;1.38;0.70;;;25.00;99.90;;;;;;5033134;28;20036;-50
2023/08/15 12:32:58;;;;;;;1.00;0.60;;;25.20;99.90;;;;;;5052165;28;20075;-51
2023/08/15 12:35:24;;;;;;;2.22;0.70;;;25.50;99.90;;;;;;5053179;28;20028;-44
2023/08/15 12:37:50;;;;;;;0.77;0.52;;;25.70;99.90;;;;;;5053251;28;20060;-51
2023/08/15 12:40:16;;;;;;;2.00;0.85;;;25.70;99.90;;;;;;5052974;28;20016;-43
2023/08/15 12:42:41;;;;;;;1.85;0.80;;;26.00;99.90;;;;;;5038541;28;20163;-55
2023/08/15 12:45:07;;;;;;;1.38;0.73;;;25.70;99.90;;;;;;5033200;28;20025;-47
2023/08/15 12:47:33;;;;;;;3.47;0.80;;;24.80;99.90;;;;;;5043438;28;20056;-49
2023/08/15 12:49:59;;;;;;;1.83;0.80;;;24.80;99.90;;;;;;5035315;28;20017;-49
2023/08/15 12:52:25;;;;;;;3.20;0.80;;;24.60;99.90;;;;;;5041317;28;20429;-49
2023/08/15 12:54:50;;;;;;;2.53;0.80;;;24.40;99.90;;;;;;5041165;28;20028;-54
2023/08/15 12:57:16;;;;;;;2.22;0.77;;;24.10;99.90;;;;;;5034665;28;20021;-47
2023/08/15 12:59:41;;;;;;;1.00;0.68;;;24.30;99.90;;;;;;5039086;28;20029;-45